Time;durP1;ratioP1;P1;durP2;ratioP2;P2;SDS_P1;SDS_P2;PMS_P1;PMS_P2;Temp;Humidity;BMP_temperature;BMP_pressure;BME280_temperature;BME280_humidity;BME280_pressure;Samples;Min_cycle;Max_cycle;Signal;HPM_P1;HPM_P2
2022/08/18 00:01:12;;;;;;;50.40;42.08;;;;;;;23.65;60.13;101114.66;5093010;28;20107;-67
2022/08/18 00:03:45;;;;;;;55.83;43.00;;;;;;;23.68;60.20;101129.88;5093917;28;20046;-68
2022/08/18 00:06:24;;;;;;;59.65;44.47;;;;;;;23.65;60.17;101133.00;5092880;28;20039;-67
2022/08/18 00:08:55;;;;;;;59.25;43.65;;;;;;;23.59;60.47;101131.84;5093567;28;20101;-67
2022/08/18 00:11:22;;;;;;;55.05;42.47;;;;;;;23.54;60.30;101125.19;5092574;28;20040;-67
2022/08/18 00:13:53;;;;;;;54.60;42.10;;;;;;;23.51;60.76;101120.94;5093104;28;20130;-67
2022/08/18 00:16:19;;;;;;;51.33;41.15;;;;;;;23.54;60.88;101131.53;5093570;28;20036;-67
2022/08/18 00:18:46;;;;;;;53.13;41.25;;;;;;;23.56;60.98;101129.47;5092418;28;20040;-67
2022/08/18 00:21:12;;;;;;;53.28;43.08;;;;;;;23.60;60.94;101133.56;5093213;27;20052;-67
2022/08/18 00:23:40;;;;;;;54.47;43.88;;;;;;;23.64;61.10;101137.63;5093567;28;20040;-68
2022/08/18 00:26:06;;;;;;;57.10;41.97;;;;;;;23.69;61.29;101137.91;5093472;28;20042;-67
2022/08/18 00:28:33;;;;;;;55.53;43.55;;;;;;;23.76;61.16;101138.00;5092812;28;20433;-68
2022/08/18 00:31:00;;;;;;;53.38;42.58;;;;;;;23.81;60.90;101132.00;5093435;28;20040;-67
2022/08/18 00:33:28;;;;;;;58.25;42.88;;;;;;;23.85;61.13;101127.84;5093252;28;20062;-67
2022/08/18 00:35:55;;;;;;;56.15;43.05;;;;;;;23.88;61.19;101120.06;5093225;28;20032;-67
2022/08/18 00:38:22;;;;;;;54.28;42.30;;;;;;;23.89;60.92;101124.53;5093288;28;20127;-67
2022/08/18 00:40:53;;;;;;;58.97;41.63;;;;;;;23.90;61.10;101125.38;5093419;28;20125;-67
2022/08/18 00:43:42;;;;;;;50.88;41.33;;;;;;;23.92;61.27;101135.13;5093213;28;20040;-67
2022/08/18 00:46:15;;;;;;;50.17;38.80;;;;;;;23.95;61.13;101142.13;5072828;28;20033;-67
2022/08/18 00:48:41;;;;;;;50.88;41.15;;;;;;;23.95;60.96;101147.59;5072805;28;20446;-67
2022/08/18 00:51:37;;;;;;;49.20;40.35;;;;;;;23.92;61.35;101151.56;5072877;28;20063;-68
2022/08/18 00:54:23;;;;;;;51.35;41.47;;;;;;;23.92;61.20;101159.81;5077522;28;20040;-67
2022/08/18 00:56:55;;;;;;;;;;;;;;;23.93;60.97;101158.75;5093241;27;20060;-67
2022/08/18 00:59:22;;;;;;;48.72;38.38;;;;;;;23.99;60.99;101168.13;5092805;28;19934;-67
2022/08/18 01:01:50;;;;;;;50.80;40.58;;;;;;;24.01;61.06;101164.16;5092170;28;20036;-68
2022/08/18 01:04:27;;;;;;;51.13;39.75;;;;;;;24.02;61.46;101159.53;5092619;28;20048;-67
2022/08/18 01:06:59;;;;;;;50.17;39.05;;;;;;;24.01;61.34;101158.69;5085344;28;20065;-68
2022/08/18 01:09:26;;;;;;;49.15;38.80;;;;;;;24.00;61.29;101151.47;5092610;28;20040;-67
2022/08/18 01:11:53;;;;;;;49.47;39.20;;;;;;;24.03;61.49;101158.47;5092347;28;20029;-67
2022/08/18 01:14:21;;;;;;;46.45;37.70;;;;;;;24.05;61.49;101157.25;5092787;28;20036;-67
2022/08/18 01:22:27;;;;;;;41.45;35.22;;;;;;;24.07;61.60;101146.94;5092265;28;20050;-67
2022/08/18 01:27:42;;;;;;;39.25;32.97;;;;;;;24.03;61.46;101142.03;5092263;28;20040;-67
2022/08/18 01:30:14;;;;;;;40.55;32.92;;;;;;;24.03;61.68;101137.38;5092210;28;20055;-66
2022/08/18 01:32:43;;;;;;;40.22;33.00;;;;;;;24.03;61.76;101140.13;5090865;28;20529;-66
2022/08/18 01:35:12;;;;;;;40.88;32.80;;;;;;;24.03;61.72;101142.88;5091192;28;20094;-66
2022/08/18 01:37:40;;;;;;;38.70;32.08;;;;;;;24.05;61.95;101145.44;5092212;28;20048;-66
2022/08/18 01:40:08;;;;;;;40.38;32.28;;;;;;;24.03;62.17;101148.38;5092065;28;20050;-66
2022/08/18 01:42:55;;;;;;;39.58;31.83;;;;;;;24.03;61.90;101153.00;5092080;28;20509;-66
2022/08/18 01:45:22;;;;;;;40.08;32.15;;;;;;;24.03;62.00;101145.63;5091998;27;20420;-66
2022/08/18 01:47:49;;;;;;;39.05;32.38;;;;;;;24.04;61.82;101151.94;5091852;28;20051;-66
2022/08/18 01:50:16;;;;;;;41.08;31.90;;;;;;;24.04;61.74;101151.94;5091964;28;20043;-66
2022/08/18 01:52:43;;;;;;;37.28;31.08;;;;;;;24.02;61.74;101157.63;5091109;28;20036;-66
2022/08/18 01:55:10;;;;;;;36.08;30.85;;;;;;;24.01;61.78;101157.81;5091336;27;20364;-66
2022/08/18 01:57:41;;;;;;;42.30;32.63;;;;;;;23.98;61.84;101156.31;5091890;28;20169;-66
2022/08/18 02:00:10;;;;;;;39.50;31.83;;;;;;;23.96;61.68;101157.53;5091417;28;20059;-66
2022/08/18 02:02:40;;;;;;;40.75;31.70;;;;;;;23.96;62.04;101152.06;5091501;28;20050;-66
2022/08/18 02:05:17;;;;;;;37.00;29.67;;;;;;;23.94;62.13;101152.25;5091717;28;20432;-66
2022/08/18 02:07:44;;;;;;;39.00;31.58;;;;;;;23.94;62.02;101144.00;5092072;28;20055;-66
2022/08/18 02:10:10;;;;;;;35.67;30.92;;;;;;;23.93;61.91;101139.56;5091256;28;20040;-66
2022/08/18 02:12:42;;;;;;;35.70;29.27;;;;;;;23.92;61.96;101140.59;5090887;28;20264;-66
2022/08/18 02:15:10;;;;;;;40.92;31.30;;;;;;;23.93;61.96;101146.94;5091625;28;20040;-66
2022/08/18 02:17:39;;;;;;;35.90;29.92;;;;;;;23.93;61.97;101135.97;5091597;28;20050;-66
2022/08/18 02:20:07;;;;;;;34.78;30.33;;;;;;;23.91;61.85;101146.28;5091265;27;20060;-66
2022/08/18 02:22:33;;;;;;;32.72;27.50;;;;;;;23.92;61.65;101162.56;5091171;28;20039;-66
2022/08/18 02:25:00;;;;;;;37.45;28.30;;;;;;;23.91;61.78;101154.50;5090601;28;20060;-67
2022/08/18 02:27:27;;;;;;;34.80;29.60;;;;;;;23.89;61.84;101148.34;5091383;28;20044;-66
2022/08/18 02:29:54;;;;;;;34.83;28.95;;;;;;;23.87;61.94;101151.28;5091248;28;20397;-65
2022/08/18 02:32:21;;;;;;;38.45;29.42;;;;;;;23.85;61.69;101155.25;5091144;28;20044;-66
2022/08/18 02:34:51;;;;;;;35.40;28.20;;;;;;;23.83;61.96;101158.19;5091356;28;20402;-65
2022/08/18 02:37:17;;;;;;;37.65;30.00;;;;;;;23.82;61.63;101158.38;5091261;28;20086;-66
2022/08/18 02:39:44;;;;;;;35.15;29.05;;;;;;;23.76;61.76;101158.06;5091273;28;20036;-66
2022/08/18 02:42:13;;;;;;;31.65;27.40;;;;;;;23.71;61.85;101162.41;5090408;28;20038;-65
2022/08/18 02:44:42;;;;;;;37.80;28.98;;;;;;;23.67;61.98;101164.66;5090160;28;20044;-66
2022/08/18 02:47:08;;;;;;;33.25;27.75;;;;;;;23.62;61.89;101174.50;5090922;28;20056;-66
2022/08/18 02:49:35;;;;;;;34.92;28.80;;;;;;;23.59;61.87;101169.38;5091026;28;20134;-66
2022/08/18 02:52:02;;;;;;;35.20;28.30;;;;;;;23.59;62.04;101170.22;5090812;28;20067;-66
2022/08/18 02:54:30;;;;;;;34.30;27.77;;;;;;;23.58;62.01;101175.91;5091180;28;20048;-66
2022/08/18 02:56:56;;;;;;;35.45;28.30;;;;;;;23.56;62.15;101183.47;5091087;28;20044;-66
2022/08/18 02:59:26;;;;;;;33.90;26.48;;;;;;;23.53;62.04;101173.69;5090403;28;20486;-65
2022/08/18 03:01:55;;;;;;;33.80;27.30;;;;;;;23.50;62.01;101184.16;5090784;28;20044;-66
2022/08/18 03:04:27;;;;;;;30.65;25.98;;;;;;;23.47;61.96;101182.66;5090947;28;20143;-65
2022/08/18 03:07:00;;;;;;;32.33;25.83;;;;;;;23.44;62.04;101172.91;5091032;28;20498;-66
2022/08/18 03:09:28;;;;;;;29.98;25.40;;;;;;;23.44;61.95;101172.91;5090831;27;20055;-65
2022/08/18 03:11:54;;;;;;;33.90;27.77;;;;;;;23.47;62.27;101174.44;5090673;28;20036;-66
2022/08/18 03:14:22;;;;;;;33.17;26.35;;;;;;;23.51;62.10;101180.38;5090948;28;20048;-65
2022/08/18 03:16:49;;;;;;;31.67;25.70;;;;;;;23.51;62.12;101180.38;5090659;27;20055;-66
2022/08/18 03:19:28;;;;;;;32.75;24.58;;;;;;;23.51;62.09;101170.28;5090244;28;20833;-66
2022/08/18 03:21:58;;;;;;;30.83;26.13;;;;;;;23.53;62.01;101168.19;5090676;28;20048;-66
2022/08/18 03:24:31;;;;;;;29.95;25.02;;;;;;;23.52;61.83;101169.25;5092275;28;20051;-66
2022/08/18 03:26:59;;;;;;;29.50;23.85;;;;;;;23.51;62.02;101169.44;5093180;28;20040;-66
2022/08/18 03:29:26;;;;;;;30.92;23.98;;;;;;;23.49;61.65;101171.50;5094751;28;20067;-65
2022/08/18 03:32:02;;;;;;;32.10;24.80;;;;;;;23.46;61.91;101168.09;5094758;28;20036;-65
2022/08/18 03:34:31;;;;;;;32.17;23.05;;;;;;;23.49;61.92;101171.50;5094650;28;20040;-66
2022/08/18 03:36:58;;;;;;;27.83;23.02;;;;;;;23.51;61.82;101162.06;5094048;28;20075;-66
2022/08/18 03:39:26;;;;;;;26.02;23.15;;;;;;;23.52;61.96;101169.25;5093148;28;20052;-65
2022/08/18 03:41:54;;;;;;;24.45;21.45;;;;;;;23.55;61.86;101173.53;5094216;28;20447;-65
2022/08/18 03:44:32;;;;;;;26.10;21.85;;;;;;;23.58;61.63;101186.88;5094340;27;20052;-65
2022/08/18 03:47:01;;;;;;;28.42;22.92;;;;;;;23.57;61.42;101183.28;5094283;28;20036;-65
2022/08/18 03:49:30;;;;;;;31.27;24.10;;;;;;;23.56;61.48;101180.72;5094155;28;20452;-65
2022/08/18 03:51:59;;;;;;;26.58;23.67;;;;;;;23.54;61.36;101169.06;5093170;28;20046;-66
2022/08/18 03:54:26;;;;;;;27.98;23.65;;;;;;;23.53;61.53;101168.19;5094249;27;20060;-66
2022/08/18 03:56:54;;;;;;;26.58;22.80;;;;;;;23.54;61.34;101163.56;5094166;28;20040;-66
2022/08/18 03:59:25;;;;;;;30.23;24.60;;;;;;;23.54;61.26;101171.78;5093939;28;20047;-65
2022/08/18 04:01:53;;;;;;;29.70;23.98;;;;;;;23.53;61.50;101170.94;5093869;28;20044;-65
2022/08/18 04:04:25;;;;;;;26.58;23.52;;;;;;;23.51;61.47;101173.03;5094328;28;20397;-66
2022/08/18 04:06:57;;;;;;;25.23;22.55;;;;;;;23.51;61.33;101164.78;5094023;28;20052;-66
2022/08/18 04:09:26;;;;;;;28.92;23.48;;;;;;;23.52;61.29;101160.16;5092944;28;20131;-66
2022/08/18 04:11:54;;;;;;;26.20;22.60;;;;;;;23.50;61.40;101168.56;5093626;28;20031;-66
2022/08/18 04:14:30;;;;;;;26.65;22.48;;;;;;;23.48;61.05;101159.69;5093851;28;20036;-67
2022/08/18 04:16:58;;;;;;;25.95;21.73;;;;;;;23.47;60.95;101166.22;5093529;27;20048;-67
2022/08/18 04:19:25;;;;;;;25.92;21.25;;;;;;;23.45;60.93;101160.06;5093882;28;20050;-66
2022/08/18 04:21:55;;;;;;;25.75;21.90;;;;;;;23.42;60.88;101152.19;5093462;28;20506;-66
2022/08/18 04:24:28;;;;;;;25.08;22.00;;;;;;;23.38;60.66;101153.59;5093609;28;20117;-66
2022/08/18 04:27:01;;;;;;;25.58;21.67;;;;;;;23.35;60.80;101154.84;5093028;28;20391;-66
2022/08/18 04:29:27;;;;;;;26.75;22.23;;;;;;;23.33;60.81;101162.38;5093416;28;20390;-66
2022/08/18 04:31:54;;;;;;;27.70;23.98;;;;;;;23.27;60.72;101163.13;5092951;28;20047;-66
2022/08/18 04:34:21;;;;;;;29.77;23.92;;;;;;;23.24;60.78;101168.97;5093226;27;20409;-66
2022/08/18 04:36:52;;;;;;;28.73;24.08;;;;;;;23.21;61.03;101168.50;5092654;28;20489;-66
2022/08/18 04:39:20;;;;;;;28.48;23.90;;;;;;;23.18;61.08;101166.97;5093396;28;20043;-66
2022/08/18 04:41:47;;;;;;;29.52;23.02;;;;;;;23.17;60.95;101158.94;5092826;28;20115;-66
2022/08/18 04:44:16;;;;;;;27.98;23.63;;;;;;;23.17;61.14;101167.16;5092053;27;20040;-66
2022/08/18 04:46:46;;;;;;;29.85;24.20;;;;;;;23.15;61.22;101178.28;5093170;28;20040;-66
2022/08/18 04:49:14;;;;;;;31.48;25.05;;;;;;;23.14;61.14;101182.94;5093062;28;20048;-66
2022/08/18 04:53:43;;;;;;;28.33;23.63;;;;;;;23.12;61.21;101182.25;5092855;28;20375;-66
2022/08/18 04:54:51;;;;;;;27.98;23.38;;;;;;;23.14;61.56;101196.63;5092944;27;20078;-67
2022/08/18 04:57:20;;;;;;;26.73;22.38;;;;;;;23.13;61.30;101194.91;5093068;28;20476;-66
2022/08/18 04:59:49;;;;;;;25.25;22.55;;;;;;;23.13;61.53;101194.91;5091857;28;20044;-66
2022/08/18 05:02:17;;;;;;;28.83;22.75;;;;;;;23.16;61.56;101199.19;5091414;28;20052;-66
2022/08/18 05:04:46;;;;;;;26.48;23.55;;;;;;;23.18;61.32;101194.38;5093353;28;20043;-65
2022/08/18 05:07:16;;;;;;;29.67;22.38;;;;;;;23.21;61.29;101195.88;5108190;28;20044;-66
2022/08/18 05:09:42;;;;;;;26.85;21.92;;;;;;;23.24;61.65;101196.38;5092615;28;20494;-66
2022/08/18 05:12:12;;;;;;;27.05;22.40;;;;;;;23.26;61.05;101204.41;5092659;28;20047;-66
2022/08/18 05:14:43;;;;;;;25.50;21.35;;;;;;;23.27;61.44;101193.28;5092815;28;20463;-66
2022/08/18 05:17:11;;;;;;;25.05;22.15;;;;;;;23.28;61.13;101200.47;5092075;28;20044;-67
2022/08/18 05:19:38;;;;;;;24.33;21.40;;;;;;;23.27;61.12;101192.41;5092684;28;20131;-66
2022/08/18 05:22:12;;;;;;;23.58;20.98;;;;;;;23.27;61.14;101201.50;5092161;28;20635;-66
2022/08/18 05:24:40;;;;;;;28.45;23.77;;;;;;;23.23;61.07;101194.66;5092536;28;20040;-66
2022/08/18 05:27:07;;;;;;;30.73;24.73;;;;;;;23.20;60.98;101194.19;5092360;28;20040;-66
2022/08/18 05:29:35;;;;;;;28.33;25.00;;;;;;;23.14;61.26;101201.25;5092189;28;20044;-66
2022/08/18 05:32:10;;;;;;;36.80;28.10;;;;;;;23.12;61.47;101203.31;5091671;28;20111;-66
2022/08/18 05:35:03;;;;;;;37.97;28.75;;;;;;;23.10;61.56;101203.50;5090531;28;20032;-66
2022/08/18 05:37:44;;;;;;;38.88;28.42;;;;;;;23.10;61.64;101205.38;5091043;28;20054;-67
2022/08/18 05:40:13;;;;;;;42.30;30.58;;;;;;;23.10;61.81;101203.50;5092057;28;20063;-66
2022/08/18 05:42:41;;;;;;;38.17;28.23;;;;;;;23.12;62.01;101214.28;5092024;28;20123;-66
2022/08/18 05:45:15;;;;;;;32.90;27.77;;;;;;;23.13;62.03;101210.50;5092010;28;20060;-67
2022/08/18 05:47:42;;;;;;;36.38;28.67;;;;;;;23.16;61.76;101209.28;5090931;28;20043;-65
2022/08/18 05:50:16;;;;;;;35.63;26.95;;;;;;;23.16;61.82;101212.88;5090208;28;20048;-66
2022/08/18 05:52:53;;;;;;;36.63;27.87;;;;;;;23.17;61.94;101216.47;5091669;28;20040;-65
2022/08/18 05:58:24;;;;;;;34.50;28.30;;;;;;;23.21;62.15;101209.59;5091906;28;20406;-65
2022/08/18 06:01:07;;;;;;;32.20;26.23;;;;;;;23.20;61.96;101211.47;5091723;28;20139;-66
2022/08/18 06:03:47;;;;;;;33.67;26.10;;;;;;;23.20;62.14;101218.84;5091633;28;20043;-66
2022/08/18 06:06:19;;;;;;;36.55;27.17;;;;;;;23.18;62.09;101212.69;5089736;28;20044;-66
2022/08/18 06:09:08;;;;;;;37.28;28.05;;;;;;;23.17;62.17;101214.59;5090603;28;20539;-66
2022/08/18 06:11:35;;;;;;;37.42;27.75;;;;;;;23.14;62.20;101223.16;5091491;28;20248;-67
2022/08/18 06:14:01;;;;;;;36.00;28.77;;;;;;;23.12;62.19;101231.56;5091513;28;20062;-67
2022/08/18 06:17:12;;;;;;;34.28;26.95;;;;;;;23.11;62.47;101227.13;5091426;28;20036;-65
2022/08/18 06:20:02;;;;;;;38.05;27.52;;;;;;;23.16;62.44;101232.06;5028787;28;20045;-66
2022/08/18 06:22:57;;;;;;;37.55;29.33;;;;;;;23.20;62.28;101232.53;5091344;28;20040;-66
2022/08/18 06:25:56;;;;;;;36.20;28.23;;;;;;;23.20;62.37;101238.03;5090146;28;20044;-67
2022/08/18 06:28:24;;;;;;;35.42;26.98;;;;;;;23.21;62.50;101246.06;5078327;28;20147;-68
2022/08/18 06:31:11;;;;;;;37.63;28.48;;;;;;;23.23;62.47;101249.47;5090931;28;20036;-68
2022/08/18 06:33:53;;;;;;;33.90;27.15;;;;;;;23.28;62.51;101247.03;5091329;28;20040;-68
2022/08/18 06:36:46;;;;;;;38.55;26.90;;;;;;;23.27;62.50;101248.09;5089552;28;20055;-68
2022/08/18 06:39:21;;;;;;;34.53;26.40;;;;;;;23.34;62.62;101250.94;5090768;28;20064;-68
2022/08/18 06:41:49;;;;;;;33.95;26.27;;;;;;;23.38;62.73;101250.41;5091014;28;20040;-68
2022/08/18 06:44:52;;;;;;;30.27;24.88;;;;;;;23.38;62.53;101247.66;5091062;28;20144;-68
2022/08/18 06:47:39;;;;;;;30.63;24.65;;;;;;;23.43;62.22;101250.69;5070648;28;20127;-68
2022/08/18 06:50:07;;;;;;;29.98;23.77;;;;;;;23.50;62.29;101244.47;5090839;28;20044;-69
2022/08/18 06:52:37;;;;;;;32.60;23.33;;;;;;;23.56;62.59;101238.28;5090816;28;20482;-69
2022/08/18 06:55:12;;;;;;;24.63;19.40;;;;;;;23.59;62.39;101243.41;5090752;28;20046;-68
2022/08/18 06:57:56;;;;;;;22.02;18.00;;;;;;;23.60;62.31;101245.13;5091080;28;20047;-69
2022/08/18 07:00:28;;;;;;;22.98;17.08;;;;;;;23.64;62.18;101247.31;5094046;28;20040;-68
2022/08/18 07:02:58;;;;;;;;;;;;;;;23.67;62.22;101246.94;5094449;28;20044;-69
2022/08/18 07:06:08;;;;;;;36.10;23.85;;;;;;;23.74;61.96;101249.78;5094101;28;19924;-68
2022/08/18 07:08:41;;;;;;;29.88;24.33;;;;;;;23.76;62.00;101254.06;5095109;28;20048;-68
2022/08/18 07:11:23;;;;;;;29.40;21.88;;;;;;;23.80;62.12;101256.47;5093806;28;20044;-68
2022/08/18 07:13:56;;;;;;;24.77;20.40;;;;;;;23.79;61.74;101260.25;5092332;28;20040;-67
2022/08/18 07:16:41;;;;;;;25.80;19.67;;;;;;;23.82;62.03;101259.88;5074508;28;20506;-68
2022/08/18 07:19:28;;;;;;;25.02;19.55;;;;;;;23.84;61.80;101261.38;5074601;28;20120;-68
2022/08/18 07:22:11;;;;;;;22.60;18.58;;;;;;;23.87;61.70;101265.66;5073932;28;20123;-67
2022/08/18 07:24:49;;;;;;;21.20;17.48;;;;;;;23.93;61.53;101260.28;5072087;28;20048;-68
2022/08/18 07:27:19;;;;;;;19.85;14.75;;;;;;;23.97;61.31;101261.59;5073399;28;20052;-68
2022/08/18 07:30:04;;;;;;;16.95;14.20;;;;;;;23.99;61.11;101265.00;5072214;28;20499;-68
2022/08/18 07:32:43;;;;;;;16.25;14.57;;;;;;;24.08;60.99;101261.16;5073760;28;20037;-68
2022/08/18 07:35:11;;;;;;;17.33;15.50;;;;;;;24.15;60.95;101268.63;5072572;28;20068;-67
2022/08/18 07:37:47;;;;;;;17.15;14.30;;;;;;;24.19;60.91;101259.84;5074146;28;20055;-68
2022/08/18 07:40:35;;;;;;;18.55;15.10;;;;;;;24.29;60.46;101256.84;5073878;28;20384;-68
2022/08/18 07:43:15;;;;;;;16.35;14.48;;;;;;;24.37;60.35;101264.97;5074037;28;20115;-68
2022/08/18 07:45:44;;;;;;;17.23;14.98;;;;;;;24.47;60.17;101267.44;5074005;28;20055;-68
2022/08/18 07:48:24;;;;;;;16.70;13.93;;;;;;;24.57;59.78;101266.16;5064160;28;20438;-68
2022/08/18 07:51:35;;;;;;;17.77;14.40;;;;;;;24.69;59.70;101269.25;5093877;28;20424;-68
2022/08/18 07:54:12;;;;;;;15.05;13.45;;;;;;;24.81;59.55;101269.63;5076003;28;20134;-68
2022/08/18 07:57:28;;;;;;;14.07;12.52;;;;;;;24.99;59.37;101264.59;5093418;28;20047;-68
2022/08/18 08:00:13;;;;;;;20.45;15.07;;;;;;;25.12;59.12;101262.00;5073809;28;20044;-67
2022/08/18 08:03:29;;;;;;;17.00;13.18;;;;;;;25.19;58.73;101268.44;5073160;28;20041;-67
2022/08/18 08:06:07;;;;;;;18.67;12.90;;;;;;;25.22;58.51;101259.78;5073495;28;20045;-67
2022/08/18 08:08:57;;;;;;;15.45;13.85;;;;;;;25.23;58.62;101264.25;5085669;28;20048;-68
2022/08/18 08:11:52;;;;;;;18.27;13.65;;;;;;;25.20;58.24;101261.88;5090896;28;20052;-68
2022/08/18 08:14:38;;;;;;;17.53;12.87;;;;;;;25.23;58.35;101266.16;5093421;28;20054;-68
2022/08/18 08:17:04;;;;;;;;;;;;;;;25.28;58.41;101261.78;5092652;28;20547;-67
2022/08/18 08:19:41;;;;;;;17.48;14.85;;;;;;;25.38;58.18;101266.13;5093718;28;20373;-68
2022/08/18 08:23:16;;;;;;;15.80;14.05;;;;;;;25.39;58.27;101265.94;5093061;28;20040;-68
2022/08/18 08:26:21;;;;;;;19.10;13.88;;;;;;;25.43;58.14;101267.22;5093468;28;20040;-68
2022/08/18 08:28:54;;;;;;;19.55;14.40;;;;;;;25.45;58.00;101261.53;4991180;28;20050;-68
2022/08/18 08:31:38;;;;;;;18.45;13.80;;;;;;;25.48;57.87;101266.66;4990844;28;20134;-68
2022/08/18 08:34:27;;;;;;;17.92;14.32;;;;;;;25.49;57.65;101276.59;5043137;28;20048;-68
2022/08/18 08:37:01;;;;;;;18.05;14.55;;;;;;;25.51;57.63;101272.59;5072936;28;20040;-69
2022/08/18 08:39:35;;;;;;;16.83;14.35;;;;;;;25.58;57.46;101276.28;5072746;28;20057;-69
2022/08/18 08:42:13;;;;;;;19.58;15.48;;;;;;;25.65;57.45;101274.47;5072763;28;20036;-69
2022/08/18 08:45:14;;;;;;;17.05;14.57;;;;;;;25.71;57.27;101269.22;5071244;28;20056;-68
2022/08/18 08:47:53;;;;;;;22.98;13.52;;;;;;;25.78;57.22;101278.38;5072658;28;20051;-69
2022/08/18 08:50:29;;;;;;;;;;;;;;;25.82;57.22;101277.78;5071969;28;20044;-68
2022/08/18 08:53:26;;;;;;;15.02;13.35;;;;;;;25.93;57.15;101280.00;5072093;28;19943;-68
2022/08/18 08:55:58;;;;;;;14.55;12.05;;;;;;;26.02;56.95;101288.16;5070901;28;20479;-67
2022/08/18 08:58:36;;;;;;;14.88;11.85;;;;;;;26.05;56.49;101282.25;5072803;28;20067;-68
2022/08/18 09:01:04;;;;;;;18.08;13.73;;;;;;;26.07;56.81;101289.25;5072345;28;20410;-68
2022/08/18 09:03:56;;;;;;;17.20;12.90;;;;;;;26.11;56.24;101284.19;5079927;28;20040;-68
2022/08/18 09:06:43;;;;;;;18.10;12.90;;;;;;;26.17;56.00;101273.22;5092557;28;20404;-67
2022/08/18 09:09:25;;;;;;;15.35;12.52;;;;;;;26.26;55.79;101280.28;5092730;28;20048;-68
2022/08/18 09:12:11;;;;;;;14.75;12.95;;;;;;;26.39;55.69;101274.03;5092105;28;20052;-68
2022/08/18 09:15:24;;;;;;;16.27;13.23;;;;;;;26.55;55.36;101276.47;5092263;28;20042;-68
2022/08/18 09:18:07;;;;;;;14.50;11.88;;;;;;;26.75;55.43;101284.84;5091686;28;20044;-67
2022/08/18 09:20:57;;;;;;;13.20;10.70;;;;;;;26.91;54.51;101278.16;5092837;28;20382;-68
2022/08/18 09:23:31;;;;;;;12.82;10.90;;;;;;;27.08;54.32;101278.69;5091301;28;20036;-69
2022/08/18 09:26:19;;;;;;;13.48;12.07;;;;;;;27.28;54.25;101281.50;5112719;28;20414;-68
2022/08/18 09:28:59;;;;;;;12.80;10.30;;;;;;;27.50;53.47;101275.63;5112678;27;20043;-71
2022/08/18 09:31:27;;;;;;;11.80;9.15;;;;;;;27.63;53.50;101276.75;5112389;28;20296;-69
2022/08/18 09:34:03;;;;;;;9.32;8.10;;;;;;;27.71;52.89;101274.63;5110724;27;20116;-70
2022/08/18 09:36:39;;;;;;;12.32;10.23;;;;;;;27.77;52.70;101278.44;5112459;28;20438;-69
2022/08/18 09:42:37;;;;;;;11.82;9.45;;;;;;;27.73;52.43;101266.97;5110372;28;20044;-70
2022/08/18 09:45:31;;;;;;;9.75;8.73;;;;;;;27.73;51.90;101271.66;5112236;27;20059;-69
2022/08/18 09:48:22;;;;;;;9.98;8.23;;;;;;;27.70;51.79;101272.94;5110912;28;20039;-69
2022/08/18 09:51:17;;;;;;;11.23;9.18;;;;;;;27.70;51.57;101275.69;5112000;28;20043;-69
2022/08/18 09:54:07;;;;;;;11.13;9.50;;;;;;;27.61;51.31;101274.19;5111680;28;20096;-69
2022/08/18 09:56:48;;;;;;;10.05;9.05;;;;;;;27.60;51.45;101275.22;5112447;27;20378;-69
2022/08/18 09:59:32;;;;;;;9.02;8.07;;;;;;;27.65;51.44;101275.47;5112022;28;20063;-68
2022/08/18 10:02:22;;;;;;;8.30;6.10;;;;;;;27.71;50.91;101271.00;5111700;28;20040;-69
2022/08/18 10:05:18;;;;;;;8.25;6.40;;;;;;;27.79;50.82;101274.41;5092245;28;20521;-69
2022/08/18 10:08:00;;;;;;;9.48;7.97;;;;;;;27.88;50.76;101275.06;5091912;28;20036;-69
2022/08/18 10:11:16;;;;;;;11.05;7.78;;;;;;;27.88;50.52;101269.53;5091575;28;20135;-69
2022/08/18 10:14:09;;;;;;;11.93;8.80;;;;;;;27.96;50.71;101265.72;5027966;28;20495;-69
2022/08/18 10:17:02;;;;;;;11.60;7.95;;;;;;;27.99;50.19;101265.28;5028737;28;20046;-69
2022/08/18 10:20:11;;;;;;;10.88;7.75;;;;;;;28.04;50.08;101263.59;5091603;28;20040;-69
2022/08/18 10:22:54;;;;;;;9.10;8.20;;;;;;;28.09;49.84;101261.03;5090646;28;20058;-70
2022/08/18 10:25:32;;;;;;;9.32;8.13;;;;;;;28.11;49.97;101256.13;5091308;28;20040;-70
2022/08/18 10:28:04;;;;;;;11.90;7.72;;;;;;;28.16;49.88;101250.81;5091353;28;20056;-69
2022/08/18 10:30:33;;;;;;;9.95;7.57;;;;;;;28.21;49.88;101257.63;5091206;28;20036;-69
2022/08/18 10:33:57;;;;;;;8.50;7.30;;;;;;;28.24;49.51;101254.44;5089384;28;20494;-70
2022/08/18 10:37:10;;;;;;;9.15;7.50;;;;;;;28.27;49.72;101245.75;5091146;28;20044;-70
2022/08/18 10:39:49;;;;;;;10.73;8.40;;;;;;;28.32;49.45;101240.44;5091038;28;20456;-69
2022/08/18 10:42:33;;;;;;;13.38;8.32;;;;;;;28.37;49.15;101252.53;5090886;28;20046;-69
2022/08/18 10:45:05;;;;;;;8.38;6.82;;;;;;;28.47;48.97;101241.88;5090582;28;20048;-69
2022/08/18 10:47:32;;;;;;;10.93;6.95;;;;;;;28.53;48.84;101245.69;5091330;28;20040;-70
2022/08/18 10:50:05;;;;;;;7.70;6.90;;;;;;;28.55;48.38;101245.47;5090947;28;20066;-72
2022/08/18 10:52:50;;;;;;;7.72;5.60;;;;;;;28.55;47.82;101245.47;5090620;28;20044;-71
2022/08/18 10:55:55;;;;;;;8.77;6.10;;;;;;;28.55;47.62;101248.25;5090907;28;20383;-70
2022/08/18 10:58:40;;;;;;;9.45;6.53;;;;;;;28.65;47.51;101252.25;5089708;28;20074;-71
2022/08/18 11:01:19;;;;;;;6.20;5.43;;;;;;;28.75;47.20;101254.53;5091022;28;20611;-69
2022/08/18 11:04:00;;;;;;;7.18;5.72;;;;;;;28.87;46.82;101252.81;5090435;28;20094;-71
2022/08/18 11:06:46;;;;;;;6.40;4.90;;;;;;;29.01;46.84;101251.72;5089644;28;20135;-71
2022/08/18 11:09:24;;;;;;;6.82;4.50;;;;;;;29.07;46.43;101250.00;5089238;28;20136;-71
2022/08/18 11:11:54;;;;;;;7.25;5.43;;;;;;;29.13;46.38;101245.50;5090542;28;20490;-71
2022/08/18 11:14:38;;;;;;;6.88;5.38;;;;;;;29.14;45.99;101248.03;5088977;28;20051;-72
2022/08/18 11:17:43;;;;;;;5.20;4.53;;;;;;;29.13;45.81;101245.50;5090675;28;20045;-71
2022/08/18 11:20:13;;;;;;;5.07;4.30;;;;;;;29.13;46.31;101228.91;5090689;28;20050;-71
2022/08/18 11:22:55;;;;;;;11.93;6.80;;;;;;;29.15;46.01;101240.59;5090793;28;20048;-71
2022/08/18 11:25:34;;;;;;;7.75;7.05;;;;;;;29.20;45.94;101233.31;5090517;28;20534;-71
2022/08/18 11:28:01;;;;;;;8.23;7.43;;;;;;;29.29;45.55;101233.91;5090599;28;20486;-71
2022/08/18 11:30:36;;;;;;;9.45;7.85;;;;;;;29.40;45.20;101211.06;5090737;28;20071;-72
2022/08/18 11:33:14;;;;;;;6.93;5.65;;;;;;;29.51;45.44;101207.59;5090222;28;20051;-71
2022/08/18 11:35:53;;;;;;;8.30;6.40;;;;;;;29.70;45.40;101212.13;5089298;28;20462;-70
2022/08/18 11:38:20;;;;;;;6.32;5.75;;;;;;;29.82;44.92;101205.88;5090989;28;20046;-71
2022/08/18 11:40:53;;;;;;;6.65;5.25;;;;;;;29.87;44.36;101203.25;5090616;28;20043;-70
2022/08/18 11:43:42;;;;;;;11.05;5.78;;;;;;;29.91;43.94;101198.97;5088925;28;20072;-71
2022/08/18 11:46:18;;;;;;;6.28;5.53;;;;;;;29.91;43.90;101188.75;5092797;28;20085;-71
2022/08/18 11:49:27;;;;;;;5.63;5.13;;;;;;;29.90;43.59;101187.03;5093916;28;20237;-71
2022/08/18 11:52:01;;;;;;;7.22;4.65;;;;;;;29.97;43.88;101184.22;5093905;28;20044;-70
2022/08/18 11:54:38;;;;;;;9.18;5.20;;;;;;;30.01;43.48;101182.69;5093559;28;20046;-71
2022/08/18 11:57:41;;;;;;;8.25;6.10;;;;;;;30.05;43.35;101189.47;5093948;28;20039;-71
2022/08/18 12:00:45;;;;;;;9.05;6.72;;;;;;;30.13;43.01;101180.88;5093953;28;20044;-72
2022/08/18 12:03:28;;;;;;;11.07;6.85;;;;;;;30.23;43.48;101172.88;5093433;28;20044;-72
2022/08/18 12:05:58;;;;;;;7.80;6.65;;;;;;;30.41;43.45;101174.78;5093644;28;20046;-68
2022/08/18 12:08:34;;;;;;;9.07;7.40;;;;;;;30.56;42.64;101177.19;5093865;28;20519;-68
2022/08/18 12:11:24;;;;;;;9.18;6.78;;;;;;;30.70;42.81;101173.19;5092561;28;20101;-68
2022/08/18 12:14:07;;;;;;;7.78;5.07;;;;;;;30.82;42.12;101178.81;5092030;28;20035;-69